x

Central Caribbean - 210 Nm Sse Of Kingston, Jamaica (42058) Wave Buoy

10:50 - Mon 23rd Jan 2017 All times are EST. -5 hours from GMT.

  • Sig Wave height 2.6ft
  • Swell Direction
  • Peak Period 5s
  • Average Period 4s
  • Wind
    11mph, 13mph gusts
  • Sea Temp 82°f
  • Ar Temp 80°f
  • Sea Pressure 1014.4mb
  • Central Caribbean - 210 Nm Sse Of Kingston, Jamaica
  • Central Caribbean - 210 Nm Sse Of Kingston, Jamaica

More Historic Weather Station data

Upgrade to MSW Pro to gain access to the past 30 days of data for over 8000 Wavebouys and Weather Stations around the globe.

Join Pro

Comparision Forecast

View Surf forecast
   
Seg 01/23 10:50 2.5ft 5s 4s 11 13 mph 1014.4mb 82f 80f
9:50 3ft 5s 4s 11 13 mph 1014.3mb 82f 80f
8:50 2.5ft 5s 4s 11 13 mph 1013.9mb 82f 80f
7:50 2.5ft 5s 4s 13 16 mph 1012.9mb 82f 80f
6:50 2.5ft 6s 4s 13 16 mph 1012.2mb 82f 80f
5:50 2.5ft 5s 4s 13 16 mph 1011.8mb 82f 80f
4:50 2.5ft 5s 4s 11 13 mph 1011.6mb 82f 80f
3:50 3ft 5s 4s 11 13 mph 1011.4mb 82f 80f
2:50 2.5ft 5s 4s 11 16 mph 1011.5mb 82f 80f
1:50 2.5ft 5s 4s 13 18 mph 1011.7mb 82f 80f
12:50 2ft 6s 4s 16
mph
1012.3mb 82f 80f
11:50 2.5ft 6s 4s 16 18 mph 1013.1mb 81f 79f
10:50 2ft 5s 4s 13 16 mph 1014.1mb 81f 79f
9:50 2.5ft 6s 4s 16 18 mph 1014.3mb 81f 80f
7:50 2.5ft 5s 4s 9 11 mph 1013.9mb 81f 79f
6:50 2.5ft 5s 4s 11 13 mph 1013mb 81f 79f
5:50 2.5ft 6s 4s 11 13 mph 1012.4mb 81f 79f
4:50 2.5ft 5s 4s 9 11 mph 1012.2mb 81f 79f
3:50 2.5ft 5s 4s 7 9 mph 1011.8mb 81f 79f
2:50 2.5ft 5s 4s 9 11 mph 1011.8mb 81f 79f
1:50 2.5ft 6s 4s 9
mph
1011.8mb 81f 79f
12:50 2.5ft 5s 4s 9 11 mph 1012.6mb 81f 79f
Dom 01/22 11:50 2.5ft 5s 4s 9 11 mph 1013.1mb 81f 79f
10:50 2.5ft 6s 4s 11 16 mph 1013.2mb 81f 79f
9:50 2.5ft 6s 4s 13 16 mph 1013.4mb 81f 79f
8:50 2.5ft 5s 4s 13 16 mph 1013.5mb 81f 79f
7:50 3ft 6s 4s 13 16 mph 1012.9mb 81f 79f
6:50 3.5ft 5s 4s 16 20 mph 1012.3mb 81f 79f
5:50 3ft 5s 4s 16 18 mph 1012.1mb 81f 79f
4:50 3ft 5s 4s 16 18 mph 1012mb 81f 80f
3:50 3ft 5s 4s 16 20 mph 1011.9mb 81f 80f
2:50 3ft 5s 4s 16 18 mph 1012.2mb 81f 80f
1:50 2.5ft 6s 4s 16 20 mph 1012.9mb 81f 80f
12:50 2.5ft 6s 4s 16 18 mph 1013.7mb 81f 80f
11:50 2.5ft 5s 4s 16 20 mph 1014.8mb 81f 80f
10:50 2.5ft 5s 4s 16 18 mph 1015.7mb 80f 80f
9:50 2.5ft 6s 4s 18 20 mph 1016mb 80f 80f
8:50 2.5ft 5s 4s 13 16 mph 1015.9mb 80f 80f
7:50 2.5ft 5s 4s 16 20 mph 1015.2mb 80f 79f
6:50 2ft 5s 4s 16 20 mph 1014.4mb 80f 78f
5:50 2ft 5s 4s 13 18 mph 1013.8mb 80f 78f
4:50 2ft 5s 4s 13 16 mph 1013.6mb 80f 78f
3:50 2ft 5s 4s 13 16 mph 1013mb 80f 78f
2:50 2ft 5s 4s 13 16 mph 1013.2mb 80f 78f
1:50 2ft 5s 4s 9 11 mph 1013.4mb 81f 78f
12:50 2ft 5s 4s 13
mph
1014.1mb 81f 79f
Sáb 01/21 11:50 2.5ft 6s 4s 11 13 mph 1014.7mb 81f 79f
10:50 2ft 6s 4s 13 16 mph 1014.8mb 81f 79f
9:50 2.5ft 5s 4s 13 16 mph 1014.9mb 81f 79f
8:50 2.5ft 5s 4s 13 18 mph 1014.8mb 81f 79f
7:50 2.5ft 5s 4s 13 16 mph 1014.4mb 81f 79f
6:50 2.5ft 5s 4s 16 20 mph 1013.8mb 81f 79f
5:50 2.5ft 5s 4s 13 16 mph 1013.5mb 81f 79f
4:50 2.5ft 5s 4s 13 18 mph 1013.5mb 81f 80f
3:50 3ft 6s 4s 13 16 mph 1013.6mb 81f 79f
2:50 2.5ft 5s 4s 13 16 mph 1014.1mb 81f 79f
1:50 2.5ft 5s 4s 13 18 mph 1014.8mb 81f 79f
12:50 2.5ft 6s 4s 13 16 mph 1016mb 81f 79f
11:50 3ft 5s 4s 13 16 mph 1016.9mb 81f 80f
10:50 3ft 6s 4s 13 18 mph 1017.4mb 81f 79f
9:50 3ft 6s 4s 16 18 mph 1017.6mb 81f 80f
8:50 3.5ft 6s 4s 16 20 mph 1017.1mb 81f 80f
7:50 3.5ft 5s 4s 16 20 mph 1016.1mb 81f 80f
6:50 3.5ft 5s 5s 16 18 mph 1015.2mb 81f 79f
5:50 3.5ft 7s 4s 16 18 mph 1014.6mb 81f 79f
4:50 3.5ft 6s 5s 16 18 mph 1014.6mb 81f 79f
3:50 3.5ft 7s 5s 16 18 mph 1014.2mb 81f 79f
2:50 3.5ft 7s 4s 16 20 mph 1014mb 81f 79f
1:50 3.5ft 6s 5s 16 20 mph 1014.5mb 81f 79f
12:50 3.5ft 7s 5s 16 20 mph 1015.1mb 81f 79f
Sex 01/20 11:50 4ft 7s 5s 16 18 mph 1015.5mb 81f 79f
10:50 3.5ft 7s 5s 18 20 mph 1015.8mb 81f 79f
9:50 3.5ft 8s 5s 16 20 mph 1015.9mb 81f 79f
8:50 4ft 6s 5s 18 20 mph 1015.7mb 81f 79f
7:50 3.5ft 5s 5s 16 20 mph 1015.2mb 81f 79f
6:50 4ft 7s 5s 16 18 mph 1014.6mb 81f 80f
5:50 3.5ft 8s 5s 16 18 mph 1013.9mb 81f 80f
4:50 4ft 7s 5s 16 18 mph 1013.5mb 81f 80f
3:50 4ft 7s 5s 16 18 mph 1013.3mb 81f 80f
2:50 4ft 8s 5s 16 18 mph 1013.2mb 81f 80f
1:50 4.5ft 7s 5s 16 20 mph 1013.7mb 81f 80f
12:50 4ft 8s 5s 16 18 mph 1014.4mb 81f 80f
11:50 4.5ft 8s 5s 18 20 mph 1015.2mb 81f 80f
10:50 4.5ft 7s 5s 18 20 mph 1015.7mb 81f 80f
9:50 4ft 7s 5s 16 20 mph 1015.8mb 81f 80f
8:50 4ft 8s 5s 16 20 mph 1015.4mb 81f 80f
7:50 4.5ft 8s 5s 18 20 mph 1014.5mb 81f 80f
6:50 4.5ft 7s 5s 16 20 mph 1013.9mb 81f 79f
5:50 4.5ft 8s 5s 16 18 mph 1013.3mb 81f 79f